createdAt,value
2022-08-19T10:54:07.977Z,58.222
2022-08-19T10:55:17.534Z,58.262001
2022-08-19T10:56:27.279Z,58.241001
2022-08-19T10:57:59.673Z,58.286999
2022-08-19T10:58:43.661Z,58.159
2022-08-19T10:59:53.257Z,58.087002
2022-08-19T11:01:03.150Z,57.997002
2022-08-19T11:02:10.610Z,57.972
2022-08-19T11:03:19.211Z,57.917
2022-08-19T11:04:29.649Z,57.814999
2022-08-19T11:05:39.824Z,57.797001
2022-08-19T11:06:46.967Z,57.744999
2022-08-19T11:07:53.857Z,57.692001
2022-08-19T11:09:03.216Z,57.691002
2022-08-19T11:10:13.176Z,57.632
2022-08-19T11:11:21.735Z,57.624001
2022-08-19T11:12:31.366Z,57.674999
2022-08-19T11:13:41.039Z,57.639999
2022-08-19T11:14:50.894Z,57.542
2022-08-19T11:16:02.759Z,57.452999
2022-08-19T11:17:08.205Z,57.375
2022-08-19T11:18:17.788Z,57.296001
2022-08-19T11:19:26.472Z,57.168999
2022-08-19T11:20:36.043Z,57.130001
2022-08-19T11:21:44.659Z,57.201
2022-08-19T11:22:53.220Z,57.140999
2022-08-19T11:24:02.940Z,57.132999
2022-08-19T11:25:12.830Z,57.062
2022-08-19T11:26:20.417Z,57.091999
2022-08-19T11:27:30.075Z,57.069
2022-08-19T11:28:38.676Z,57.082001
2022-08-19T11:29:47.255Z,57.078999
2022-08-19T11:30:55.877Z,57.088001
2022-08-19T11:32:04.456Z,57.075001
2022-08-19T11:33:14.037Z,57.056
2022-08-19T11:34:22.617Z,57.055
2022-08-19T11:35:31.173Z,56.995998
2022-08-19T11:36:40.745Z,56.981998
2022-08-19T11:37:49.306Z,56.969002
2022-08-19T11:38:57.901Z,56.905998
2022-08-19T11:40:06.531Z,56.967999
2022-08-19T11:41:15.602Z,56.883999
2022-08-19T11:42:23.173Z,56.835999
2022-08-19T11:43:36.864Z,56.848999
2022-08-19T11:44:42.370Z,56.773998
2022-08-19T11:45:49.962Z,56.805
2022-08-19T11:46:59.561Z,56.720001
2022-08-19T11:48:09.126Z,56.661999
2022-08-19T11:49:18.827Z,56.691002
2022-08-19T11:50:26.399Z,56.646999
2022-08-19T11:51:33.972Z,56.599998
2022-08-19T11:52:43.588Z,56.569
2022-08-19T11:53:52.192Z,56.534
2022-08-19T11:55:01.776Z,56.463001
2022-08-19T11:56:11.369Z,56.484001
2022-08-19T11:57:20.947Z,56.460999
2022-08-19T11:58:30.533Z,56.511002
2022-08-19T11:59:39.150Z,56.442001
2022-08-19T12:00:48.784Z,56.425999
2022-08-19T12:01:58.321Z,56.356998
2022-08-19T12:03:06.882Z,56.361
2022-08-19T12:04:15.522Z,56.386002
2022-08-19T12:05:25.035Z,56.348999
2022-08-19T12:06:33.598Z,56.271
2022-08-19T12:07:43.185Z,56.235001
2022-08-19T12:08:51.816Z,56.254002
2022-08-19T12:09:59.394Z,56.265999
2022-08-19T12:11:08.983Z,56.206001
2022-08-19T12:12:17.547Z,56.206001
2022-08-19T12:13:26.184Z,56.206001
2022-08-19T12:14:34.801Z,56.168999
2022-08-19T12:15:44.426Z,56.216999
2022-08-19T12:16:53.991Z,56.186001
2022-08-19T12:18:01.563Z,56.198002
2022-08-19T12:19:10.191Z,56.120998
2022-08-19T12:20:20.762Z,56.125999
2022-08-19T12:21:29.350Z,56.098999
2022-08-19T12:22:37.937Z,56.047001
2022-08-19T12:23:46.530Z,56.066002
2022-08-19T12:24:56.082Z,55.994999
2022-08-19T12:26:05.663Z,56.007999
2022-08-19T12:27:13.261Z,55.929001
2022-08-19T12:28:21.813Z,55.873001
2022-08-19T12:29:31.397Z,55.801998
2022-08-19T12:30:40.973Z,55.731998
2022-08-19T12:31:49.545Z,55.75
2022-08-19T12:32:58.109Z,55.743
2022-08-19T12:34:06.677Z,55.717999
2022-08-19T12:35:16.235Z,55.696999
2022-08-19T12:36:23.824Z,55.701
2022-08-19T12:37:32.395Z,55.810001
2022-08-19T12:38:41.984Z,55.708
2022-08-19T12:39:50.598Z,55.629002
2022-08-19T12:41:00.473Z,55.641998
2022-08-19T12:42:08.658Z,55.647999
2022-08-19T12:43:17.227Z,55.647999
2022-08-19T12:44:29.650Z,55.608002
2022-08-19T12:45:37.519Z,55.652
2022-08-19T12:46:45.907Z,55.632999
2022-08-19T12:47:56.725Z,55.596001
2022-08-19T12:49:15.347Z,55.543999
2022-08-19T12:50:15.725Z,55.561001
2022-08-19T12:51:24.423Z,55.567001
2022-08-19T12:52:32.991Z,55.549
2022-08-19T12:53:42.576Z,55.516998
2022-08-19T12:54:50.127Z,55.542
2022-08-19T12:55:57.677Z,55.511002
2022-08-19T12:57:07.245Z,55.523998
2022-08-19T12:58:15.833Z,55.523998
2022-08-19T12:59:25.473Z,55.505001
2022-08-19T13:00:34.167Z,55.535999
2022-08-19T13:01:42.638Z,55.499001
2022-08-19T13:02:53.200Z,55.529999
2022-08-19T13:04:00.780Z,55.5
2022-08-19T13:05:10.369Z,55.595001
2022-08-19T13:06:20.285Z,55.606998
2022-08-19T13:07:28.527Z,55.601002
2022-08-19T13:08:37.109Z,55.568001
2022-08-19T13:09:45.676Z,55.619999
2022-08-19T13:10:54.235Z,55.576
2022-08-19T13:12:03.807Z,55.530998
2022-08-19T13:13:12.390Z,55.518002
2022-08-19T13:14:19.954Z,55.506001
2022-08-19T13:15:29.539Z,55.512001
2022-08-19T13:16:38.114Z,55.5
2022-08-19T13:17:45.677Z,55.583
2022-08-19T13:18:54.308Z,55.583
2022-08-19T13:20:02.859Z,55.576
2022-08-19T13:21:12.443Z,55.530998
2022-08-19T13:22:20.018Z,55.568001
2022-08-19T13:23:28.611Z,55.683998
2022-08-19T13:24:38.201Z,55.651001
2022-08-19T13:25:48.049Z,55.747002
2022-08-19T13:26:56.349Z,55.886002
2022-08-19T13:28:06.126Z,56.040001
2022-08-19T13:29:15.876Z,56.192001
2022-08-19T13:30:25.477Z,56.257
2022-08-19T13:31:33.046Z,56.230999
2022-08-19T13:32:42.606Z,56.327
2022-08-19T13:33:53.301Z,56.365002
2022-08-19T13:35:02.927Z,56.423
2022-08-19T13:36:11.439Z,56.486
2022-08-19T13:37:20.023Z,56.460999
2022-08-19T13:38:29.697Z,56.553001
2022-08-19T13:39:37.314Z,56.547001
2022-08-19T13:40:46.887Z,56.612
2022-08-19T13:41:55.914Z,56.701
2022-08-19T13:43:13.630Z,56.828999
2022-08-19T13:44:16.099Z,56.921001
2022-08-19T13:45:24.718Z,57.005001
2022-08-19T13:46:34.422Z,57.106998
2022-08-19T13:47:42.981Z,57.172001
2022-08-19T13:48:50.583Z,57.277
2022-08-19T13:50:00.156Z,57.374001
2022-08-19T13:51:08.914Z,57.451
2022-08-19T13:52:17.670Z,57.519001
2022-08-19T13:53:26.260Z,57.313
2022-08-19T13:54:35.086Z,57.360001
2022-08-19T13:55:44.715Z,57.415001
2022-08-19T13:56:54.241Z,57.473
2022-08-19T13:58:01.835Z,57.839001
2022-08-19T13:59:11.418Z,58.116001
2022-08-19T14:00:19.005Z,58.209
2022-08-19T14:01:27.623Z,57.945999
2022-08-19T14:02:37.179Z,57.820999
2022-08-19T14:03:46.807Z,58.122002
2022-08-19T14:04:56.427Z,58.339001
2022-08-19T14:06:04.986Z,58.375
2022-08-19T14:07:14.545Z,58.504002
2022-08-19T14:08:24.133Z,58.534
2022-08-19T14:09:31.698Z,58.508999
2022-08-19T14:10:40.254Z,58.553001
2022-08-19T14:11:49.860Z,58.532001
2022-08-19T14:12:58.467Z,58.300999
2022-08-19T14:14:08.047Z,58.095001
2022-08-19T14:15:17.629Z,58.018002
2022-08-19T14:16:26.218Z,58.404999
2022-08-19T14:17:35.817Z,58.508999
2022-08-19T14:18:44.410Z,58.563999
2022-08-19T14:19:52.980Z,58.641998
2022-08-19T14:21:02.585Z,58.799
2022-08-19T14:22:11.149Z,59.16
2022-08-19T14:23:21.733Z,59.241001
2022-08-19T14:24:29.322Z,59.256001
2022-08-19T14:25:36.934Z,59.178001
2022-08-19T14:26:46.528Z,59.192001
2022-08-19T14:27:55.236Z,59.179001
2022-08-19T14:29:03.657Z,59.158001
2022-08-19T14:30:12.216Z,59.398998
2022-08-19T14:31:20.791Z,59.504002
2022-08-19T14:32:31.353Z,59.717999
2022-08-19T14:33:38.957Z,59.773998
2022-08-19T14:34:47.532Z,59.865002
2022-08-19T14:35:59.500Z,59.987
2022-08-19T14:37:05.653Z,59.933998
2022-08-19T14:38:15.211Z,60.011002
2022-08-19T14:39:24.773Z,60.041
2022-08-19T14:40:33.329Z,60.030998
2022-08-19T14:41:42.909Z,60.122002
2022-08-19T14:42:51.492Z,60.116001
2022-08-19T14:43:59.071Z,60.214001
2022-08-19T14:45:08.686Z,60.380001
2022-08-19T14:46:17.223Z,58.771999
2022-08-19T14:47:26.818Z,58.118999
2022-08-19T14:48:37.398Z,57.791
2022-08-19T14:49:48.614Z,57.634998
2022-08-19T14:50:57.516Z,57.152
2022-08-19T14:52:05.133Z,57.318001
2022-08-19T14:53:13.737Z,57.384998
2022-08-19T14:54:23.342Z,57.283001
2022-08-19T14:55:33.958Z,56.992001
2022-08-19T14:56:42.496Z,56.709999
2022-08-19T14:57:51.153Z,56.230999
2022-08-19T14:58:59.727Z,55.978001
2022-08-19T15:00:09.307Z,56.306999
2022-08-19T15:01:19.236Z,55.880001
2022-08-19T15:02:34.352Z,55.648998
2022-08-19T15:03:39.907Z,55.813999
2022-08-19T15:04:48.478Z,55.596001
2022-08-19T15:05:58.057Z,55.806
2022-08-19T15:07:07.641Z,55.831001
2022-08-19T15:08:16.268Z,55.799999
2022-08-19T15:09:25.872Z,55.787998
2022-08-19T15:10:34.561Z,55.653
2022-08-19T15:11:43.174Z,55.755001
2022-08-19T15:12:52.914Z,55.710999
2022-08-19T15:14:01.362Z,55.692001
2022-08-19T15:15:09.936Z,55.622002
2022-08-19T15:16:18.600Z,55.464001
2022-08-19T15:17:32.468Z,55.459999
2022-08-19T15:18:38.655Z,55.453999
2022-08-19T15:19:46.218Z,55.429001
2022-08-19T15:20:53.803Z,55.333
2022-08-19T15:22:03.394Z,55.327
2022-08-19T15:23:13.034Z,55.250999
2022-08-19T15:24:21.656Z,55.320999
2022-08-19T15:25:31.377Z,55.263
2022-08-19T15:26:39.911Z,55.187
2022-08-19T15:27:49.525Z,55.201
2022-08-19T15:28:57.169Z,55.201
2022-08-19T15:30:04.726Z,55.143002
2022-08-19T15:31:17.126Z,55.112
2022-08-19T15:32:24.909Z,55.167999
2022-08-19T15:33:33.492Z,55.148998
2022-08-19T15:34:42.081Z,55.048
2022-08-19T15:35:52.027Z,55.022999
2022-08-19T15:37:00.696Z,55.066002
2022-08-19T15:38:10.329Z,55.060001
2022-08-19T15:39:19.947Z,55.078999
2022-08-19T15:40:28.579Z,55.022999
2022-08-19T15:41:37.281Z,55.041
2022-08-19T15:42:45.867Z,54.965
2022-08-19T15:43:53.570Z,54.933998
2022-08-19T15:45:02.388Z,54.882
2022-08-19T15:46:09.719Z,54.939999
2022-08-19T15:47:20.974Z,54.952
2022-08-19T15:48:30.622Z,54.926998
2022-08-19T15:49:38.229Z,54.983002
2022-08-19T15:50:47.798Z,54.909
2022-08-19T15:51:56.359Z,54.888
2022-08-19T15:53:05.961Z,54.948002
2022-08-19T15:54:13.580Z,54.910999
2022-08-19T15:55:32.385Z,54.903999
2022-08-19T15:56:33.782Z,54.903999
2022-08-19T15:57:42.364Z,54.929001
2022-08-19T15:58:50.967Z,54.891998
2022-08-19T15:59:59.934Z,54.702
2022-08-19T16:01:12.643Z,54.536999
2022-08-19T16:02:17.749Z,54.462002
2022-08-19T16:03:28.297Z,54.435001
2022-08-19T16:04:36.843Z,54.582001
2022-08-19T16:05:46.455Z,54.632
2022-08-19T16:06:55.067Z,54.671001
2022-08-19T16:08:03.722Z,54.665001
2022-08-19T16:09:12.422Z,54.676998
2022-08-19T16:10:26.786Z,54.708
2022-08-19T16:11:32.606Z,54.708
2022-08-19T16:12:41.177Z,54.720001
2022-08-19T16:13:50.752Z,54.738998
2022-08-19T16:15:00.334Z,54.702
2022-08-19T16:16:08.923Z,54.727001
2022-08-19T16:17:17.502Z,54.727001
2022-08-19T16:18:26.214Z,54.719002
2022-08-19T16:19:34.821Z,54.707001
2022-08-19T16:20:43.428Z,54.713001
2022-08-19T16:21:51.027Z,54.701
2022-08-19T16:22:59.614Z,54.707001
2022-08-19T16:24:09.252Z,54.688
2022-08-19T16:25:17.806Z,54.681999
2022-08-19T16:26:27.711Z,54.667999
2022-08-19T16:27:37.010Z,54.681999
2022-08-19T16:28:46.593Z,54.667999
2022-08-19T16:29:56.225Z,54.661999
2022-08-19T16:31:03.826Z,54.618
2022-08-19T16:32:12.402Z,54.637001
2022-08-19T16:33:22.718Z,54.655998
2022-08-19T16:34:30.587Z,54.637001
2022-08-19T16:35:39.222Z,54.599998
2022-08-19T16:36:47.868Z,54.587002
2022-08-19T16:37:56.589Z,54.535999
2022-08-19T16:39:06.046Z,54.581001
2022-08-19T16:40:15.644Z,54.605999
2022-08-19T16:41:23.275Z,54.599998
2022-08-19T16:42:32.878Z,54.592999
2022-08-19T16:43:42.487Z,54.592999
2022-08-19T16:44:51.151Z,54.613998
2022-08-19T16:45:59.761Z,54.619999
2022-08-19T16:47:08.343Z,54.625999
2022-08-19T16:48:17.950Z,54.613998
2022-08-19T16:49:52.495Z,54.608002
2022-08-19T16:50:51.215Z,54.619999
2022-08-19T16:51:46.609Z,54.589001
2022-08-19T16:52:55.260Z,54.589001
2022-08-19T16:54:03.822Z,54.43
2022-08-19T16:55:13.389Z,54.304001
2022-08-19T16:56:22.999Z,54.209
2022-08-19T16:57:32.573Z,54.106998
2022-08-19T16:58:40.165Z,54.088001
